sensor_id;sensor_type;location;lat;lon;timestamp;temperature;humidity
66576;SHT31;53428;47.686;16.584;2023-08-01T00:03:24;20.99;84.45
66576;SHT31;53428;47.686;16.584;2023-08-01T00:08:24;20.97;84.90
66576;SHT31;53428;47.686;16.584;2023-08-01T00:13:23;20.86;84.85
66576;SHT31;53428;47.686;16.584;2023-08-01T00:18:23;20.75;85.23
66576;SHT31;53428;47.686;16.584;2023-08-01T00:23:23;20.64;85.88
66576;SHT31;53428;47.686;16.584;2023-08-01T00:28:23;20.65;85.92
66576;SHT31;53428;47.686;16.584;2023-08-01T00:33:22;20.59;86.00
66576;SHT31;53428;47.686;16.584;2023-08-01T00:38:22;20.59;86.29
66576;SHT31;53428;47.686;16.584;2023-08-01T00:43:21;20.45;86.91
66576;SHT31;53428;47.686;16.584;2023-08-01T00:48:20;20.42;87.00
66576;SHT31;53428;47.686;16.584;2023-08-01T00:53:20;20.38;87.34
66576;SHT31;53428;47.686;16.584;2023-08-01T00:58:20;20.25;87.39
66576;SHT31;53428;47.686;16.584;2023-08-01T01:03:19;20.25;87.67
66576;SHT31;53428;47.686;16.584;2023-08-01T01:08:19;20.24;87.78
66576;SHT31;53428;47.686;16.584;2023-08-01T01:13:19;20.13;87.94
66576;SHT31;53428;47.686;16.584;2023-08-01T01:18:18;20.06;88.16
66576;SHT31;53428;47.686;16.584;2023-08-01T01:23:19;19.98;88.13
66576;SHT31;53428;47.686;16.584;2023-08-01T01:28:20;19.96;88.42
66576;SHT31;53428;47.686;16.584;2023-08-01T01:33:20;19.81;88.94
66576;SHT31;53428;47.686;16.584;2023-08-01T01:38:20;19.76;89.22
66576;SHT31;53428;47.686;16.584;2023-08-01T01:43:19;19.66;89.56
66576;SHT31;53428;47.686;16.584;2023-08-01T01:48:19;19.48;90.27
66576;SHT31;53428;47.686;16.584;2023-08-01T01:53:18;19.49;90.60
66576;SHT31;53428;47.686;16.584;2023-08-01T01:58:18;19.26;91.23
66576;SHT31;53428;47.686;16.584;2023-08-01T02:03:17;19.18;91.38
66576;SHT31;53428;47.686;16.584;2023-08-01T02:08:17;19.16;91.58
66576;SHT31;53428;47.686;16.584;2023-08-01T02:13:16;18.98;92.02
66576;SHT31;53428;47.686;16.584;2023-08-01T02:18:16;19.11;92.01
66576;SHT31;53428;47.686;16.584;2023-08-01T02:23:15;19.08;91.95
66576;SHT31;53428;47.686;16.584;2023-08-01T02:28:14;19.10;91.79
66576;SHT31;53428;47.686;16.584;2023-08-01T02:33:14;18.97;92.26
66576;SHT31;53428;47.686;16.584;2023-08-01T02:38:13;18.68;92.77
66576;SHT31;53428;47.686;16.584;2023-08-01T02:43:13;18.43;93.79
66576;SHT31;53428;47.686;16.584;2023-08-01T02:48:12;18.18;94.66
66576;SHT31;53428;47.686;16.584;2023-08-01T02:53:11;18.06;95.28
66576;SHT31;53428;47.686;16.584;2023-08-01T02:58:11;18.22;95.21
66576;SHT31;53428;47.686;16.584;2023-08-01T03:03:10;18.39;94.55
66576;SHT31;53428;47.686;16.584;2023-08-01T03:08:09;18.37;94.45
66576;SHT31;53428;47.686;16.584;2023-08-01T03:13:09;18.37;94.51
66576;SHT31;53428;47.686;16.584;2023-08-01T03:18:08;18.42;94.42
66576;SHT31;53428;47.686;16.584;2023-08-01T03:23:08;18.52;94.20
66576;SHT31;53428;47.686;16.584;2023-08-01T03:28:07;18.56;94.17
66576;SHT31;53428;47.686;16.584;2023-08-01T03:33:08;18.57;94.05
66576;SHT31;53428;47.686;16.584;2023-08-01T03:38:08;18.52;94.22
66576;SHT31;53428;47.686;16.584;2023-08-01T03:43:07;18.32;94.49
66576;SHT31;53428;47.686;16.584;2023-08-01T03:48:08;18.21;94.99
66576;SHT31;53428;47.686;16.584;2023-08-01T03:53:08;18.25;95.03
66576;SHT31;53428;47.686;16.584;2023-08-01T03:58:07;18.37;94.58
66576;SHT31;53428;47.686;16.584;2023-08-01T04:03:07;18.42;94.46
66576;SHT31;53428;47.686;16.584;2023-08-01T04:08:06;18.37;94.71
66576;SHT31;53428;47.686;16.584;2023-08-01T04:13:06;18.40;94.63
66576;SHT31;53428;47.686;16.584;2023-08-01T04:18:05;18.37;94.88
66576;SHT31;53428;47.686;16.584;2023-08-01T04:23:04;18.46;94.76
66576;SHT31;53428;47.686;16.584;2023-08-01T04:28:04;18.52;94.59
66576;SHT31;53428;47.686;16.584;2023-08-01T04:33:04;18.68;93.78
66576;SHT31;53428;47.686;16.584;2023-08-01T04:38:03;18.40;94.37
66576;SHT31;53428;47.686;16.584;2023-08-01T04:43:03;18.28;94.33
66576;SHT31;53428;47.686;16.584;2023-08-01T04:48:03;18.18;94.83
66576;SHT31;53428;47.686;16.584;2023-08-01T04:53:03;18.24;94.70
66576;SHT31;53428;47.686;16.584;2023-08-01T04:58:03;18.28;95.20
66576;SHT31;53428;47.686;16.584;2023-08-01T05:03:03;18.32;94.84
66576;SHT31;53428;47.686;16.584;2023-08-01T05:08:02;18.59;94.21
66576;SHT31;53428;47.686;16.584;2023-08-01T05:13:02;19.08;92.95
66576;SHT31;53428;47.686;16.584;2023-08-01T05:18:01;19.45;91.88
66576;SHT31;53428;47.686;16.584;2023-08-01T05:23:01;19.67;90.82
66576;SHT31;53428;47.686;16.584;2023-08-01T05:28:00;20.08;89.18
66576;SHT31;53428;47.686;16.584;2023-08-01T05:33:00;20.39;88.78
66576;SHT31;53428;47.686;16.584;2023-08-01T05:37:59;20.24;88.90
66576;SHT31;53428;47.686;16.584;2023-08-01T05:42:59;20.16;89.42
66576;SHT31;53428;47.686;16.584;2023-08-01T05:47:59;20.38;89.06
66576;SHT31;53428;47.686;16.584;2023-08-01T05:52:58;20.96;87.34
66576;SHT31;53428;47.686;16.584;2023-08-01T05:57:57;21.34;86.26
66576;SHT31;53428;47.686;16.584;2023-08-01T06:02:57;21.75;85.42
66576;SHT31;53428;47.686;16.584;2023-08-01T06:07:57;22.02;85.24
66576;SHT31;53428;47.686;16.584;2023-08-01T06:12:57;21.88;85.78
66576;SHT31;53428;47.686;16.584;2023-08-01T06:17:56;22.63;83.53
66576;SHT31;53428;47.686;16.584;2023-08-01T06:22:55;23.04;81.28
66576;SHT31;53428;47.686;16.584;2023-08-01T06:27:55;23.42;80.52
66576;SHT31;53428;47.686;16.584;2023-08-01T06:32:54;23.78;79.29
66576;SHT31;53428;47.686;16.584;2023-08-01T06:37:53;23.81;79.01
66576;SHT31;53428;47.686;16.584;2023-08-01T06:42:53;24.29;77.69
66576;SHT31;53428;47.686;16.584;2023-08-01T06:47:52;24.67;77.34
66576;SHT31;53428;47.686;16.584;2023-08-01T06:52:52;24.66;77.07
66576;SHT31;53428;47.686;16.584;2023-08-01T06:57:51;25.24;76.08
66576;SHT31;53428;47.686;16.584;2023-08-01T07:02:51;25.13;76.61
66576;SHT31;53428;47.686;16.584;2023-08-01T07:07:50;24.76;77.97
66576;SHT31;53428;47.686;16.584;2023-08-01T07:12:49;24.38;79.37
66576;SHT31;53428;47.686;16.584;2023-08-01T07:17:49;23.84;80.67
66576;SHT31;53428;47.686;16.584;2023-08-01T07:22:48;23.81;80.79
66576;SHT31;53428;47.686;16.584;2023-08-01T07:27:48;23.74;81.52
66576;SHT31;53428;47.686;16.584;2023-08-01T07:32:47;23.49;82.50
66576;SHT31;53428;47.686;16.584;2023-08-01T07:37:46;23.78;82.41
66576;SHT31;53428;47.686;16.584;2023-08-01T07:42:46;24.18;80.01
66576;SHT31;53428;47.686;16.584;2023-08-01T07:47:46;24.45;78.95
66576;SHT31;53428;47.686;16.584;2023-08-01T07:52:45;24.42;78.66
66576;SHT31;53428;47.686;16.584;2023-08-01T07:57:44;24.67;78.41
66576;SHT31;53428;47.686;16.584;2023-08-01T08:02:45;25.15;77.38
66576;SHT31;53428;47.686;16.584;2023-08-01T08:07:44;25.14;77.01
66576;SHT31;53428;47.686;16.584;2023-08-01T08:12:44;24.96;77.67
66576;SHT31;53428;47.686;16.584;2023-08-01T08:17:43;25.71;75.79
66576;SHT31;53428;47.686;16.584;2023-08-01T08:22:42;26.14;74.80
66576;SHT31;53428;47.686;16.584;2023-08-01T08:27:42;25.34;77.63
66576;SHT31;53428;47.686;16.584;2023-08-01T08:32:41;25.92;76.30
66576;SHT31;53428;47.686;16.584;2023-08-01T08:37:40;25.34;75.36
66576;SHT31;53428;47.686;16.584;2023-08-01T08:42:40;24.84;77.92
66576;SHT31;53428;47.686;16.584;2023-08-01T08:47:42;24.53;78.89
66576;SHT31;53428;47.686;16.584;2023-08-01T08:52:45;24.04;79.82
66576;SHT31;53428;47.686;16.584;2023-08-01T08:57:45;23.49;81.59
66576;SHT31;53428;47.686;16.584;2023-08-01T09:02:49;23.70;82.08
66576;SHT31;53428;47.686;16.584;2023-08-01T09:07:50;23.93;81.48
66576;SHT31;53428;47.686;16.584;2023-08-01T09:12:50;24.07;81.11
66576;SHT31;53428;47.686;16.584;2023-08-01T09:17:51;23.87;81.64
66576;SHT31;53428;47.686;16.584;2023-08-01T09:22:50;23.57;82.81
66576;SHT31;53428;47.686;16.584;2023-08-01T09:27:53;23.98;81.09
66576;SHT31;53428;47.686;16.584;2023-08-01T09:32:55;23.84;81.75
66576;SHT31;53428;47.686;16.584;2023-08-01T09:37:55;23.64;82.91
66576;SHT31;53428;47.686;16.584;2023-08-01T09:43:01;24.07;81.67
66576;SHT31;53428;47.686;16.584;2023-08-01T09:48:00;24.17;81.51
66576;SHT31;53428;47.686;16.584;2023-08-01T09:53:09;24.25;80.19
66576;SHT31;53428;47.686;16.584;2023-08-01T09:58:08;23.85;81.05
66576;SHT31;53428;47.686;16.584;2023-08-01T10:03:09;23.46;81.89
66576;SHT31;53428;47.686;16.584;2023-08-01T10:08:11;23.66;82.21
66576;SHT31;53428;47.686;16.584;2023-08-01T10:13:13;23.35;83.66
66576;SHT31;53428;47.686;16.584;2023-08-01T10:18:13;23.39;82.66
66576;SHT31;53428;47.686;16.584;2023-08-01T10:23:12;23.43;81.77
66576;SHT31;53428;47.686;16.584;2023-08-01T10:28:12;22.96;82.95
66576;SHT31;53428;47.686;16.584;2023-08-01T10:33:11;22.71;85.84
66576;SHT31;53428;47.686;16.584;2023-08-01T10:38:13;22.43;86.92
66576;SHT31;53428;47.686;16.584;2023-08-01T10:43:22;22.13;87.23
66576;SHT31;53428;47.686;16.584;2023-08-01T10:48:22;21.38;89.82
66576;SHT31;53428;47.686;16.584;2023-08-01T10:53:22;21.31;90.76
66576;SHT31;53428;47.686;16.584;2023-08-01T10:58:26;21.44;91.08
66576;SHT31;53428;47.686;16.584;2023-08-01T11:03:37;21.37;87.24
66576;SHT31;53428;47.686;16.584;2023-08-01T11:08:40;20.92;84.03
66576;SHT31;53428;47.686;16.584;2023-08-01T11:13:40;20.72;84.94
66576;SHT31;53428;47.686;16.584;2023-08-01T11:18:43;20.65;84.96
66576;SHT31;53428;47.686;16.584;2023-08-01T11:23:42;20.32;84.41
66576;SHT31;53428;47.686;16.584;2023-08-01T11:28:41;20.34;85.07
66576;SHT31;53428;47.686;16.584;2023-08-01T11:33:40;19.84;88.71
66576;SHT31;53428;47.686;16.584;2023-08-01T11:38:40;19.38;92.64
66576;SHT31;53428;47.686;16.584;2023-08-01T11:43:43;19.00;93.56
66576;SHT31;53428;47.686;16.584;2023-08-01T11:48:46;18.73;94.98
66576;SHT31;53428;47.686;16.584;2023-08-01T11:54:01;18.52;97.89
66576;SHT31;53428;47.686;16.584;2023-08-01T11:59:08;18.55;99.99
66576;SHT31;53428;47.686;16.584;2023-08-01T12:04:08;18.55;99.81
66576;SHT31;53428;47.686;16.584;2023-08-01T12:09:10;18.67;99.99
66576;SHT31;53428;47.686;16.584;2023-08-01T12:14:11;18.57;99.99
66576;SHT31;53428;47.686;16.584;2023-08-01T12:19:17;18.47;99.99
66576;SHT31;53428;47.686;16.584;2023-08-01T12:24:16;18.43;99.99
66576;SHT31;53428;47.686;16.584;2023-08-01T12:29:16;18.43;99.99
66576;SHT31;53428;47.686;16.584;2023-08-01T12:34:15;18.32;99.99
66576;SHT31;53428;47.686;16.584;2023-08-01T12:39:15;18.30;99.99
66576;SHT31;53428;47.686;16.584;2023-08-01T12:44:14;18.45;99.99
66576;SHT31;53428;47.686;16.584;2023-08-01T12:49:17;18.30;99.99
66576;SHT31;53428;47.686;16.584;2023-08-01T12:54:17;18.46;99.99
66576;SHT31;53428;47.686;16.584;2023-08-01T12:59:44;18.26;99.99
66576;SHT31;53428;47.686;16.584;2023-08-01T13:04:43;18.09;99.99
66576;SHT31;53428;47.686;16.584;2023-08-01T13:09:43;17.82;99.99
66576;SHT31;53428;47.686;16.584;2023-08-01T13:14:42;17.81;99.99
66576;SHT31;53428;47.686;16.584;2023-08-01T13:19:41;17.74;99.99
66576;SHT31;53428;47.686;16.584;2023-08-01T13:24:40;17.74;99.99
66576;SHT31;53428;47.686;16.584;2023-08-01T13:29:40;17.89;99.99
66576;SHT31;53428;47.686;16.584;2023-08-01T13:34:39;17.87;99.99
66576;SHT31;53428;47.686;16.584;2023-08-01T13:39:38;17.74;99.99
66576;SHT31;53428;47.686;16.584;2023-08-01T13:44:38;17.67;99.99
66576;SHT31;53428;47.686;16.584;2023-08-01T13:49:37;17.67;99.99
66576;SHT31;53428;47.686;16.584;2023-08-01T13:54:36;17.70;99.99
66576;SHT31;53428;47.686;16.584;2023-08-01T13:59:36;17.61;99.99
66576;SHT31;53428;47.686;16.584;2023-08-01T14:04:35;17.50;99.99
66576;SHT31;53428;47.686;16.584;2023-08-01T14:09:34;17.55;99.99
66576;SHT31;53428;47.686;16.584;2023-08-01T14:14:35;17.53;99.99
66576;SHT31;53428;47.686;16.584;2023-08-01T14:19:34;17.49;99.99
66576;SHT31;53428;47.686;16.584;2023-08-01T14:24:33;17.55;99.99
66576;SHT31;53428;47.686;16.584;2023-08-01T14:29:33;17.63;99.99
66576;SHT31;53428;47.686;16.584;2023-08-01T14:34:32;17.63;99.99
66576;SHT31;53428;47.686;16.584;2023-08-01T14:39:32;17.73;99.99
66576;SHT31;53428;47.686;16.584;2023-08-01T14:44:31;17.67;99.99
66576;SHT31;53428;47.686;16.584;2023-08-01T14:49:31;17.39;99.99
66576;SHT31;53428;47.686;16.584;2023-08-01T14:54:30;17.47;99.99
66576;SHT31;53428;47.686;16.584;2023-08-01T14:59:30;17.44;99.99
66576;SHT31;53428;47.686;16.584;2023-08-01T15:04:29;17.57;99.99
66576;SHT31;53428;47.686;16.584;2023-08-01T15:09:29;17.41;99.99
66576;SHT31;53428;47.686;16.584;2023-08-01T15:14:29;17.51;99.99
66576;SHT31;53428;47.686;16.584;2023-08-01T15:19:28;17.46;99.99
66576;SHT31;53428;47.686;16.584;2023-08-01T15:24:29;17.55;99.99
66576;SHT31;53428;47.686;16.584;2023-08-01T15:29:29;17.50;99.99
66576;SHT31;53428;47.686;16.584;2023-08-01T15:34:29;17.54;99.99
66576;SHT31;53428;47.686;16.584;2023-08-01T15:39:28;17.50;99.99
66576;SHT31;53428;47.686;16.584;2023-08-01T15:44:27;17.43;99.99
66576;SHT31;53428;47.686;16.584;2023-08-01T15:49:27;17.46;99.99
66576;SHT31;53428;47.686;16.584;2023-08-01T15:54:26;17.49;99.99
66576;SHT31;53428;47.686;16.584;2023-08-01T15:59:26;17.34;99.99
66576;SHT31;53428;47.686;16.584;2023-08-01T16:04:25;17.29;99.99
66576;SHT31;53428;47.686;16.584;2023-08-01T16:09:25;17.18;99.99
66576;SHT31;53428;47.686;16.584;2023-08-01T16:14:24;17.32;99.99
66576;SHT31;53428;47.686;16.584;2023-08-01T16:19:24;17.26;99.99
66576;SHT31;53428;47.686;16.584;2023-08-01T16:24:24;17.27;99.99
66576;SHT31;53428;47.686;16.584;2023-08-01T16:29:23;17.26;99.99
66576;SHT31;53428;47.686;16.584;2023-08-01T16:34:23;17.27;99.99
66576;SHT31;53428;47.686;16.584;2023-08-01T16:39:22;17.22;99.99
66576;SHT31;53428;47.686;16.584;2023-08-01T16:44:22;17.26;99.99
66576;SHT31;53428;47.686;16.584;2023-08-01T16:49:21;17.20;99.99
66576;SHT31;53428;47.686;16.584;2023-08-01T16:54:21;17.18;99.99
66576;SHT31;53428;47.686;16.584;2023-08-01T16:59:21;17.12;99.99
66576;SHT31;53428;47.686;16.584;2023-08-01T17:04:21;17.08;99.99
66576;SHT31;53428;47.686;16.584;2023-08-01T17:09:20;17.08;99.99
66576;SHT31;53428;47.686;16.584;2023-08-01T17:14:20;16.95;99.99
66576;SHT31;53428;47.686;16.584;2023-08-01T17:19:20;16.95;99.99
66576;SHT31;53428;47.686;16.584;2023-08-01T17:24:20;16.95;99.99
66576;SHT31;53428;47.686;16.584;2023-08-01T17:29:21;16.92;99.99
66576;SHT31;53428;47.686;16.584;2023-08-01T17:34:21;16.99;99.99
66576;SHT31;53428;47.686;16.584;2023-08-01T17:39:21;16.99;99.99
66576;SHT31;53428;47.686;16.584;2023-08-01T17:44:21;16.91;99.99
66576;SHT31;53428;47.686;16.584;2023-08-01T17:49:21;16.91;99.99
66576;SHT31;53428;47.686;16.584;2023-08-01T17:54:20;16.86;99.99
66576;SHT31;53428;47.686;16.584;2023-08-01T17:59:20;16.91;99.99
66576;SHT31;53428;47.686;16.584;2023-08-01T18:04:20;16.85;99.99
66576;SHT31;53428;47.686;16.584;2023-08-01T18:09:20;16.82;99.99
66576;SHT31;53428;47.686;16.584;2023-08-01T18:14:19;16.88;99.99
66576;SHT31;53428;47.686;16.584;2023-08-01T18:19:20;16.81;99.99
66576;SHT31;53428;47.686;16.584;2023-08-01T18:24:21;16.81;99.99
66576;SHT31;53428;47.686;16.584;2023-08-01T18:29:20;16.75;99.99
66576;SHT31;53428;47.686;16.584;2023-08-01T18:34:20;16.72;99.99
66576;SHT31;53428;47.686;16.584;2023-08-01T18:39:20;16.67;99.99
66576;SHT31;53428;47.686;16.584;2023-08-01T18:44:21;16.61;99.99
66576;SHT31;53428;47.686;16.584;2023-08-01T18:49:21;16.63;99.99
66576;SHT31;53428;47.686;16.584;2023-08-01T18:54:21;16.64;99.99
66576;SHT31;53428;47.686;16.584;2023-08-01T18:59:21;16.63;99.99
66576;SHT31;53428;47.686;16.584;2023-08-01T19:04:22;16.57;99.99
66576;SHT31;53428;47.686;16.584;2023-08-01T19:09:22;16.60;99.99
66576;SHT31;53428;47.686;16.584;2023-08-01T19:14:22;16.60;99.99
66576;SHT31;53428;47.686;16.584;2023-08-01T19:19:21;16.57;99.99
66576;SHT31;53428;47.686;16.584;2023-08-01T19:24:21;16.60;99.99
66576;SHT31;53428;47.686;16.584;2023-08-01T19:29:21;16.57;99.99
66576;SHT31;53428;47.686;16.584;2023-08-01T19:34:21;16.58;99.99
66576;SHT31;53428;47.686;16.584;2023-08-01T19:39:22;16.53;99.99
66576;SHT31;53428;47.686;16.584;2023-08-01T19:44:22;16.55;99.99
66576;SHT31;53428;47.686;16.584;2023-08-01T19:49:24;16.57;99.99
66576;SHT31;53428;47.686;16.584;2023-08-01T19:54:24;16.65;99.99
66576;SHT31;53428;47.686;16.584;2023-08-01T19:59:23;16.68;99.99
66576;SHT31;53428;47.686;16.584;2023-08-01T20:04:23;16.75;99.99
66576;SHT31;53428;47.686;16.584;2023-08-01T20:09:25;16.92;99.99
66576;SHT31;53428;47.686;16.584;2023-08-01T20:14:24;16.93;99.99
66576;SHT31;53428;47.686;16.584;2023-08-01T20:19:24;16.85;99.99
66576;SHT31;53428;47.686;16.584;2023-08-01T20:24:23;16.82;99.99
66576;SHT31;53428;47.686;16.584;2023-08-01T20:29:23;16.76;99.99
66576;SHT31;53428;47.686;16.584;2023-08-01T20:34:23;16.67;99.99
66576;SHT31;53428;47.686;16.584;2023-08-01T20:39:23;16.71;99.99
66576;SHT31;53428;47.686;16.584;2023-08-01T20:44:24;16.85;99.99
66576;SHT31;53428;47.686;16.584;2023-08-01T20:49:25;16.69;99.99
66576;SHT31;53428;47.686;16.584;2023-08-01T20:54:24;16.63;99.99
66576;SHT31;53428;47.686;16.584;2023-08-01T20:59:24;16.67;99.99
66576;SHT31;53428;47.686;16.584;2023-08-01T21:04:24;16.64;99.99
66576;SHT31;53428;47.686;16.584;2023-08-01T21:09:23;16.63;99.99
66576;SHT31;53428;47.686;16.584;2023-08-01T21:14:23;16.54;99.99
66576;SHT31;53428;47.686;16.584;2023-08-01T21:19:23;16.54;99.99
66576;SHT31;53428;47.686;16.584;2023-08-01T21:24:22;16.51;99.99
66576;SHT31;53428;47.686;16.584;2023-08-01T21:29:21;16.44;99.99
66576;SHT31;53428;47.686;16.584;2023-08-01T21:34:21;16.37;99.99
66576;SHT31;53428;47.686;16.584;2023-08-01T21:39:20;16.44;99.99
66576;SHT31;53428;47.686;16.584;2023-08-01T21:44:20;16.41;99.99
66576;SHT31;53428;47.686;16.584;2023-08-01T21:49:19;16.24;99.99
66576;SHT31;53428;47.686;16.584;2023-08-01T21:54:19;16.27;99.99
66576;SHT31;53428;47.686;16.584;2023-08-01T21:59:19;16.14;99.99
66576;SHT31;53428;47.686;16.584;2023-08-01T22:04:18;16.07;99.99
66576;SHT31;53428;47.686;16.584;2023-08-01T22:09:18;16.02;99.99
66576;SHT31;53428;47.686;16.584;2023-08-01T22:14:17;15.78;99.99
66576;SHT31;53428;47.686;16.584;2023-08-01T22:19:16;15.77;99.99
66576;SHT31;53428;47.686;16.584;2023-08-01T22:24:16;15.62;99.99
66576;SHT31;53428;47.686;16.584;2023-08-01T22:29:15;15.63;99.99
66576;SHT31;53428;47.686;16.584;2023-08-01T22:34:14;15.62;99.99
66576;SHT31;53428;47.686;16.584;2023-08-01T22:39:14;15.48;99.99
66576;SHT31;53428;47.686;16.584;2023-08-01T22:44:13;15.52;99.99
66576;SHT31;53428;47.686;16.584;2023-08-01T22:49:12;15.35;99.99
66576;SHT31;53428;47.686;16.584;2023-08-01T22:54:13;15.30;99.99
66576;SHT31;53428;47.686;16.584;2023-08-01T22:59:12;15.11;99.99
66576;SHT31;53428;47.686;16.584;2023-08-01T23:04:12;15.02;99.99
66576;SHT31;53428;47.686;16.584;2023-08-01T23:09:11;15.26;99.99
66576;SHT31;53428;47.686;16.584;2023-08-01T23:14:10;15.11;99.99
66576;SHT31;53428;47.686;16.584;2023-08-01T23:19:10;15.23;99.99
66576;SHT31;53428;47.686;16.584;2023-08-01T23:24:09;15.19;99.99
66576;SHT31;53428;47.686;16.584;2023-08-01T23:29:09;15.00;99.99
66576;SHT31;53428;47.686;16.584;2023-08-01T23:34:08;15.08;99.99
66576;SHT31;53428;47.686;16.584;2023-08-01T23:39:08;14.86;99.99
66576;SHT31;53428;47.686;16.584;2023-08-01T23:44:07;14.62;99.99
66576;SHT31;53428;47.686;16.584;2023-08-01T23:49:06;14.59;99.99
66576;SHT31;53428;47.686;16.584;2023-08-01T23:54:06;14.59;99.99
66576;SHT31;53428;47.686;16.584;2023-08-01T23:59:05;14.62;99.99
